Time;durP1;ratioP1;P1;durP2;ratioP2;P2;SDS_P1;SDS_P2;PMS_P1;PMS_P2;Temp;Humidity;BMP_temperature;BMP_pressure;BME280_temperature;BME280_humidity;BME280_pressure;Samples;Min_cycle;Max_cycle;Signal;HPM_P1;HPM_P2
2024/01/28 00:01:42;;;;;;;24.67;9.85;;;;;;;;;;5071697;28;20037;-71
2024/01/28 00:04:09;;;;;;;18.55;9.10;;;;;;;;;;5054999;28;20044;-71
2024/01/28 00:06:35;;;;;;;20.85;9.60;;;;;;;;;;5078622;28;20047;-71
2024/01/28 00:09:01;;;;;;;19.73;9.30;;;;;;;;;;5078790;28;20040;-71
2024/01/28 00:11:27;;;;;;;22.88;9.23;;;;;;;;;;5071231;28;20032;-71
2024/01/28 00:13:53;;;;;;;22.02;9.27;;;;;;;;;;5071420;28;20050;-71
2024/01/28 00:16:20;;;;;;;15.57;8.70;;;;;;;;;;5071599;28;20400;-71
2024/01/28 00:18:46;;;;;;;20.55;8.82;;;;;;;;;;5071768;28;20066;-71
2024/01/28 00:21:12;;;;;;;20.77;8.57;;;;;;;;;;5073937;28;20036;-71
2024/01/28 00:23:38;;;;;;;19.42;8.65;;;;;;;;;;5071403;28;20075;-70
2024/01/28 00:26:07;;;;;;;22.08;8.57;;;;;;;;;;5074042;28;20044;-71
2024/01/28 00:28:33;;;;;;;18.50;8.93;;;;;;;;;;5073208;28;20052;-70
2024/01/28 00:30:59;;;;;;;18.85;8.35;;;;;;;;;;5070278;28;20066;-71
2024/01/28 00:33:25;;;;;;;21.80;8.48;;;;;;;;;;5075353;28;20041;-71
2024/01/28 00:35:51;;;;;;;26.55;8.35;;;;;;;;;;5078362;28;20047;-71
2024/01/28 00:38:17;;;;;;;18.05;7.47;;;;;;;;;;5076498;28;20059;-71
2024/01/28 00:40:43;;;;;;;18.42;8.23;;;;;;;;;;5074993;28;20043;-71
2024/01/28 00:43:09;;;;;;;19.48;7.93;;;;;;;;;;5075330;28;20514;-71
2024/01/28 00:45:35;;;;;;;18.85;8.35;;;;;;;;;;5090757;28;20047;-71
2024/01/28 00:48:01;;;;;;;16.55;7.85;;;;;;;;;;5075396;28;20072;-71
2024/01/28 00:50:27;;;;;;;13.90;6.93;;;;;;;;;;5075136;28;20538;-71
2024/01/28 00:52:53;;;;;;;16.08;8.00;;;;;;;;;;5058157;28;20529;-71
2024/01/28 00:55:19;;;;;;;16.63;7.93;;;;;;;;;;5063487;28;20040;-71
2024/01/28 00:57:45;;;;;;;17.52;8.05;;;;;;;;;;5083709;28;20490;-71
2024/01/28 01:00:12;;;;;;;14.82;7.63;;;;;;;;;;5059872;28;20080;-71
2024/01/28 01:02:39;;;;;;;15.88;7.95;;;;;;;;;;5068512;28;20105;-71
2024/01/28 01:05:05;;;;;;;17.17;7.03;;;3.90;99.90;;;;;;5072095;28;20042;-71
2024/01/28 01:07:31;;;;;;;14.98;7.32;;;;;;;;;;5074675;28;20468;-71
2024/01/28 01:09:57;;;;;;;15.27;7.63;;;;;;;;;;5050132;28;20476;-70
2024/01/28 01:12:23;;;;;;;19.38;7.50;;;;;;;;;;5089460;28;20488;-71
2024/01/28 01:14:49;;;;;;;19.20;8.15;;;;;;;;;;5079377;28;20139;-70
2024/01/28 01:17:15;;;;;;;16.90;7.57;;;;;;;;;;5089707;28;20111;-71
2024/01/28 01:19:41;;;;;;;16.73;7.78;;;;;;;;;;5073049;28;20036;-70
2024/01/28 01:22:07;;;;;;;18.40;7.78;;;;;;;;;;5090277;28;20043;-71
2024/01/28 01:24:33;;;;;;;19.90;7.32;;;;;;;;;;5074309;28;20048;-71
2024/01/28 01:26:59;;;;;;;15.25;7.65;;;;;;;;;;5074588;28;20105;-71
2024/01/28 01:29:25;;;;;;;17.48;7.25;;;;;;;;;;5058496;28;20037;-70
2024/01/28 01:31:53;;;;;;;16.95;7.28;;;;;;;;;;5076042;28;20044;-70
2024/01/28 01:34:19;;;;;;;17.58;7.53;;;;;;;;;;5077321;28;20037;-71
2024/01/28 01:36:45;;;;;;;16.35;7.75;;;;;;;;;;5072922;28;20036;-70
2024/01/28 01:39:12;;;;;;;18.90;7.32;;;;;;;;;;5074288;28;20071;-71
2024/01/28 01:41:38;;;;;;;17.05;6.93;;;;;;;;;;5081219;28;20075;-70
2024/01/28 01:44:04;;;;;;;17.92;6.75;;;;;;;;;;5064506;28;20046;-71
2024/01/28 01:46:31;;;;;;;17.52;7.28;;;;;;;;;;5074065;28;20119;-71
2024/01/28 01:48:58;;;;;;;17.20;7.50;;;;;;;;;;5068725;28;20052;-70
2024/01/28 01:51:25;;;;;;;15.68;7.97;;;;;;;;;;5074887;28;20542;-70
2024/01/28 01:53:51;;;;;;;14.88;7.00;;;;;;;;;;5057242;28;20075;-71
2024/01/28 01:56:18;;;;;;;15.60;6.50;;;;;;;;;;5087343;28;20060;-70
2024/01/28 01:58:46;;;;;;;16.55;6.70;;;;;;;;;;5070946;28;20036;-71
2024/01/28 02:01:16;;;;;;;12.43;6.28;;;3.30;99.90;;;;;;5084062;28;20044;-71
2024/01/28 02:03:42;;;;;;;20.35;7.75;;;;;;;;;;5092013;28;20449;-70
2024/01/28 02:06:08;;;;;;;11.75;5.78;;;;;;;;;;5074843;28;20040;-71
2024/01/28 02:08:34;;;;;;;18.45;6.45;;;;;;;;;;5073622;28;20090;-70
2024/01/28 02:11:02;;;;;;;14.00;6.05;;;;;;;;;;5086788;28;20032;-71
2024/01/28 02:13:28;;;;;;;12.23;6.13;;;;;;;;;;5078557;28;20094;-70
2024/01/28 02:15:54;;;;;;;12.10;6.35;;;;;;;;;;5072165;28;20047;-71
2024/01/28 02:18:20;;;;;;;16.85;5.90;;;;;;;;;;5073102;28;20037;-71
2024/01/28 02:20:46;;;;;;;12.90;6.07;;;;;;;;;;5057912;28;20032;-71
2024/01/28 02:23:21;;;;;;;13.18;5.97;;;;;;;;;;5071965;28;20067;-70
2024/01/28 02:25:47;;;;;;;16.38;6.55;;;;;;;;;;5081974;28;20067;-71
2024/01/28 02:28:13;;;;;;;13.50;6.20;;;;;;;;;;5073508;28;20032;-71
2024/01/28 02:30:39;;;;;;;14.68;6.60;;;;;;;;;;5078102;28;20049;-70
2024/01/28 02:33:05;;;;;;;15.82;5.88;;;;;;;;;;5072922;28;20049;-71
2024/01/28 02:35:31;;;;;;;13.90;5.80;;;;;;;;;;5074704;28;20040;-70
2024/01/28 02:37:57;;;;;;;11.18;5.65;;;;;;;;;;5073047;28;20037;-70
2024/01/28 02:40:23;;;;;;;13.45;5.95;;;;;;;;;;5057182;28;20028;-70
2024/01/28 02:42:49;;;;;;;14.43;5.97;;;;;;;;;;5072977;28;20047;-71
2024/01/28 02:45:15;;;;;;;14.38;5.63;;;;;;;;;;5074982;28;20105;-70
2024/01/28 02:47:41;;;;;;;12.43;5.70;;;;;;;;;;5088152;28;20036;-71
2024/01/28 02:50:07;;;;;;;11.77;5.50;;;;;;;;;;5091499;28;20141;-71
2024/01/28 02:52:33;;;;;;;9.95;5.15;;;;;;;;;;5074377;28;20385;-71
2024/01/28 02:55:00;;;;;;;15.70;5.97;;;;;;;;;;5056295;28;20033;-71
2024/01/28 02:57:26;;;;;;;15.60;5.82;;;;;;;;;;5073971;28;20083;-71
2024/01/28 02:59:52;;;;;;;13.02;6.28;;;;;;;;;;5090825;28;20119;-70
2024/01/28 03:02:18;;;;;;;15.25;6.30;;;;;;;;;;5069303;28;20568;-71
2024/01/28 03:04:44;;;;;;;14.90;6.82;;;;;;;;;;5090880;28;20086;-71
2024/01/28 03:07:10;;;;;;;13.85;6.53;;;;;;;;;;5083656;28;20043;-71
2024/01/28 03:09:36;;;;;;;13.25;5.95;;;;;;;;;;5072703;28;20438;-70
2024/01/28 03:12:03;;;;;;;13.93;6.32;;;;;;;;;;5073350;28;20037;-71
2024/01/28 03:14:29;;;;;;;15.65;6.43;;;;;;;;;;5072312;28;20119;-70
2024/01/28 03:16:55;;;;;;;16.88;7.07;;;;;;;;;;5072782;28;20047;-71
2024/01/28 03:19:21;;;;;;;16.27;6.53;;;;;;;;;;5090483;28;20080;-70
2024/01/28 03:21:47;;;;;;;17.38;6.80;;;;;;;;;;5056524;28;20136;-71
2024/01/28 03:24:13;;;;;;;14.15;6.95;;;;;;;;;;5088525;28;20048;-71
2024/01/28 03:26:39;;;;;;;18.55;6.28;;;;;;;;;;5088969;28;20036;-71
2024/01/28 03:29:06;;;;;;;18.65;7.30;;;;;;;;;;5072597;28;20443;-71
2024/01/28 03:31:32;;;;;;;17.88;7.10;;;;;;;;;;5055718;28;20131;-71
2024/01/28 03:33:58;;;;;;;13.38;6.75;;;;;;;;;;5073038;28;20102;-71
2024/01/28 03:36:24;;;;;;;17.52;8.10;;;;;;;;;;5072990;28;20082;-70
2024/01/28 03:38:50;;;;;;;14.05;7.95;;;;;;;;;;5071541;28;20043;-70
2024/01/28 03:41:17;;;;;;;19.85;8.00;;;;;;;;;;5071916;28;20036;-71
2024/01/28 03:43:43;;;;;;;16.60;7.18;;;;;;;;;;5055154;28;20119;-71
2024/01/28 03:46:09;;;;;;;13.93;8.10;;;;;;;;;;5073134;28;20048;-70
2024/01/28 03:48:36;;;;;;;17.17;7.70;;;;;;;;;;5071786;28;20456;-71
2024/01/28 03:51:02;;;;;;;15.95;7.70;;;;;;;;;;5055027;28;20044;-70
2024/01/28 03:53:28;;;;;;;20.17;8.25;;;;;;;;;;5071534;28;20041;-70
2024/01/28 03:55:54;;;;;;;19.85;8.20;;;;;;;;;;5079098;28;20075;-70
2024/01/28 03:58:21;;;;;;;18.48;8.15;;;;;;;;;;5081114;28;20476;-71
2024/01/28 04:00:47;;;;;;;15.32;7.65;;;;;;;;;;5071038;28;20496;-71
2024/01/28 04:03:13;;;;;;;16.15;8.15;;;;;;;;;;5054538;28;20047;-71
2024/01/28 04:05:39;;;;;;;13.05;7.65;;;;;;;;;;5081550;28;20429;-71
2024/01/28 04:08:09;;;;;;;17.95;8.55;;;;;;;;;;5087405;28;20039;-71
2024/01/28 04:10:35;;;;;;;18.40;8.25;;;;;;;;;;5071727;28;20080;-71
2024/01/28 04:13:01;;;;;;;17.65;8.55;;;;;;;;;;5071344;28;20102;-71
2024/01/28 04:15:27;;;;;;;16.88;8.00;;;;;;;;;;5068320;28;20036;-71
2024/01/28 04:17:53;;;;;;;16.95;7.95;;;;;;;;;;5089540;28;20071;-71
2024/01/28 04:20:19;;;;;;;14.35;7.50;;;;;;;;;;5073949;28;20181;-71
2024/01/28 04:22:45;;;;;;;17.95;8.55;;;;;;;;;;5071201;28;20044;-71
2024/01/28 04:25:13;;;;;;;16.45;7.47;;;2.50;99.90;;;;;;5075224;28;20072;-71
2024/01/28 04:27:39;;;;;;;16.45;8.63;;;;;;;;;;5072152;28;20444;-73
2024/01/28 04:30:05;;;;;;;12.48;7.65;;;;;;;;;;5037577;28;20044;-70
2024/01/28 04:32:31;;;;;;;18.45;8.68;;;;;;;;;;5053180;28;20481;-70
2024/01/28 04:34:57;;;;;;;20.15;8.07;;;;;;;;;;5084197;28;20043;-71
2024/01/28 04:37:26;;;;;;;19.23;8.23;;;;;;;;;;5084645;28;20032;-70
2024/01/28 04:39:52;;;;;;;13.82;7.70;;;;;;;;;;5077332;28;20036;-71
2024/01/28 04:42:22;;;;;;;21.15;8.52;;;;;;;;;;5087040;28;20063;-71
2024/01/28 04:44:48;;;;;;;17.02;8.70;;;;;;;;;;5089236;28;20082;-70
2024/01/28 04:47:14;;;;;;;17.40;8.25;;;;;;;;;;5089805;28;20046;-71
2024/01/28 04:49:40;;;;;;;17.02;8.93;;;;;;;;;;5088393;28;20036;-74
2024/01/28 04:52:06;;;;;;;19.73;8.23;;;;;;;;;;5072189;28;20178;-69
2024/01/28 04:54:33;;;;;;;13.18;8.63;;;;;;;;;;5073504;28;20089;-70
2024/01/28 04:57:02;;;;;;;15.73;8.13;;;;;;;;;;5056843;28;20145;-70
2024/01/28 04:59:28;;;;;;;14.50;7.90;;;;;;;;;;5086601;28;20105;-70
2024/01/28 05:01:55;;;;;;;16.63;7.88;;;;;;;;;;5083507;28;20126;-70
2024/01/28 05:04:21;;;;;;;22.33;8.98;;;;;;;;;;5068107;28;20051;-70
2024/01/28 05:06:47;;;;;;;18.10;8.65;;;;;;;;;;5083149;28;20475;-70
2024/01/28 05:09:13;;;;;;;16.35;8.05;;;;;;;;;;5091121;28;20488;-70
2024/01/28 05:11:39;;;;;;;18.52;8.48;;;;;;;;;;5074256;28;20519;-70
2024/01/28 05:14:05;;;;;;;18.60;8.20;;;;;;;;;;5074658;28;20389;-70
2024/01/28 05:16:31;;;;;;;18.38;8.18;;;;;;;;;;5074541;28;20043;-70
2024/01/28 05:18:57;;;;;;;15.32;8.20;;;;;;;;;;5058984;28;20537;-70
2024/01/28 05:21:24;;;;;;;17.85;8.40;;;;;;;;;;5074766;28;20067;-70
2024/01/28 05:23:53;;;;;;;23.08;9.10;;;;;;;;;;5074127;28;20494;-70
2024/01/28 05:26:19;;;;;;;18.10;8.65;;;;;;;;;;5074454;28;20080;-70
2024/01/28 05:28:45;;;;;;;18.85;8.75;;;;;;;;;;5074343;28;20052;-70
2024/01/28 05:31:12;;;;;;;18.23;9.00;;;;;;;;;;5057586;28;20564;-70
2024/01/28 05:33:38;;;;;;;17.27;9.10;;;;;;;;;;5057501;28;20396;-70
2024/01/28 05:36:14;;;;;;;17.13;8.57;;;;;;;;;;5074480;28;20440;-70
2024/01/28 05:38:41;;;;;;;16.35;8.63;;;;;;;;;;5074339;28;20177;-70
2024/01/28 05:41:08;;;;;;;15.40;8.05;;;;;;;;;;5073966;28;20044;-70
2024/01/28 05:43:34;;;;;;;11.85;7.82;;;;;;;;;;5074146;28;20044;-70
2024/01/28 05:46:00;;;;;;;15.20;8.40;;;;;;;;;;5074254;28;20388;-70
2024/01/28 05:48:26;;;;;;;19.88;9.20;;;;;;;;;;5074016;28;20040;-70
2024/01/28 05:50:53;;;;;;;19.63;9.02;;;;;;;;;;5057322;28;20528;-70
2024/01/28 05:53:19;;;;;;;19.77;9.75;;;;;;;;;;5057304;28;20145;-70
2024/01/28 05:55:45;;;;;;;19.48;9.20;;;;;;;;;;5073906;28;20143;-70
2024/01/28 05:58:11;;;;;;;16.17;8.80;;;;;;;;;;5074435;28;20056;-70
2024/01/28 06:00:37;;;;;;;18.00;9.02;;;;;;;;;;5077264;28;20036;-71
2024/01/28 06:03:04;;;;;;;19.23;8.75;;;;;;;;;;5077552;28;20055;-70
2024/01/28 06:05:30;;;;;;;17.40;8.50;;;;;;;;;;5095186;28;20047;-70
2024/01/28 06:07:56;;;;;;;17.10;8.13;;;;;;;;;;5093775;28;20067;-70
2024/01/28 06:10:22;;;;;;;16.95;9.52;;;;;;;;;;5094058;28;20036;-70
2024/01/28 06:12:48;;;;;;;14.90;8.52;;;;;;;;;;5093640;28;20040;-70
2024/01/28 06:15:14;;;;;;;18.23;8.90;;;;;;;;;;5088107;28;20033;-70
2024/01/28 06:17:40;;;;;;;20.17;9.43;;;;;;;;;;5091865;28;20333;-70
2024/01/28 06:20:08;;;;;;;14.80;8.98;;;;;;;;;;5082765;28;20481;-71
2024/01/28 06:22:34;;;;;;;13.95;8.45;;;;;;;;;;5080364;28;20397;-70
2024/01/28 06:25:01;;;;;;;17.48;8.50;;;2.20;99.90;;;;;;5088073;28;20648;-70
2024/01/28 06:27:27;;;;;;;18.25;8.93;;;;;;;;;;5088998;28;20476;-70
2024/01/28 06:29:53;;;;;;;19.45;8.80;;;;;;;;;;5066557;28;20126;-70
2024/01/28 06:32:21;;;;;;;19.02;9.27;;;;;;;;;;5093518;28;20052;-70
2024/01/28 06:34:47;;;;;;;16.42;8.52;;;;;;;;;;5076143;28;20429;-70
2024/01/28 06:37:13;;;;;;;17.95;9.55;;;;;;;;;;5073306;28;20133;-69
2024/01/28 06:39:39;;;;;;;17.23;8.65;;;;;;;;;;5073203;28;20046;-70
2024/01/28 06:42:05;;;;;;;16.92;8.60;;;;;;;;;;5072947;28;20126;-70
2024/01/28 06:44:36;;;;;;;15.95;8.65;;;;;;;;;;5072891;28;20098;-70
2024/01/28 06:47:03;;;;;;;19.42;9.27;;;;;;;;;;5090461;28;20052;-70
2024/01/28 06:49:29;;;;;;;14.07;9.10;;;;;;;;;;5092954;28;20058;-71
2024/01/28 06:51:55;;;;;;;15.25;9.10;;;;;;;;;;5092971;28;20051;-70
2024/01/28 06:54:21;;;;;;;17.27;9.73;;;;;;;;;;5092983;28;20040;-69
2024/01/28 06:56:51;;;;;;;22.60;9.70;;;;;;;;;;5093109;28;20040;-70
2024/01/28 06:59:19;;;;;;;14.90;9.23;;;;;;;;;;5092666;28;20561;-70
2024/01/28 07:01:46;;;;;;;18.52;8.70;;;;;;;;;;5092557;28;20492;-70
2024/01/28 07:04:12;;;;;;;17.25;8.50;;;;;;;;;;5092677;28;20042;-70
2024/01/28 07:06:38;;;;;;;14.27;9.43;;;;;;;;;;5075972;28;20102;-70
2024/01/28 07:09:04;;;;;;;17.92;9.02;;;;;;;;;;5092711;28;20040;-70
2024/01/28 07:11:30;;;;;;;19.38;9.52;;;;;;;;;;5092459;28;20044;-70
2024/01/28 07:13:56;;;;;;;18.90;9.13;;;;;;;;;;5092548;28;20036;-70
2024/01/28 07:16:23;;;;;;;21.27;9.38;;;;;;;;;;5092416;28;20119;-71
2024/01/28 07:18:49;;;;;;;18.70;8.55;;;;;;;;;;5092499;28;20039;-70
2024/01/28 07:21:16;;;;;;;17.65;9.50;;;;;;;;;;5092511;28;20044;-70
2024/01/28 07:23:42;;;;;;;16.83;9.50;;;;;;;;;;5073566;28;20153;-70
2024/01/28 07:26:11;;;;;;;16.45;9.02;;;;;;;;;;5072275;28;20179;-70
2024/01/28 07:28:37;;;;;;;15.05;8.52;;;;;;;;;;5055363;28;20044;-70
2024/01/28 07:31:05;;;;;;;17.45;9.55;;;;;;;;;;5078505;28;20437;-70
2024/01/28 07:33:31;;;;;;;18.38;9.30;;;;;;;;;;5079590;28;20437;-70
2024/01/28 07:35:58;;;;;;;16.90;9.50;;;;;;;;;;5075005;28;20103;-70
2024/01/28 07:38:24;;;;;;;17.38;8.98;;;;;;;;;;5067181;28;20059;-69
2024/01/28 07:40:50;;;;;;;20.80;9.68;;;;;;;;;;5083097;28;20036;-69
2024/01/28 07:43:16;;;;;;;18.05;9.05;;;;;;;;;;5072666;28;20048;-69
2024/01/28 07:45:42;;;;;;;17.40;8.60;;;;;;;;;;5077358;28;20495;-69
2024/01/28 07:48:08;;;;;;;16.98;8.60;;;;;;;;;;5092030;28;20059;-69
2024/01/28 07:50:34;;;;;;;20.38;8.80;;;;;;;;;;5075011;28;20483;-69
2024/01/28 07:53:01;;;;;;;17.63;9.55;;;;;;;;;;5091847;28;20052;-70
2024/01/28 07:55:27;;;;;;;17.17;9.25;;;;;;;;;;5093253;28;20042;-70
2024/01/28 07:57:54;;;;;;;17.58;8.57;;;;;;;;;;5085944;28;20075;-69
2024/01/28 08:00:21;;;;;;;15.88;8.95;;;;;;;;;;5071407;28;20124;-69
2024/01/28 08:02:47;;;;;;;13.65;8.82;;;;;;;;;;5071753;28;20399;-70
2024/01/28 08:05:13;;;;;;;16.60;8.32;;;;;;;;;;5071812;28;20053;-70
2024/01/28 08:07:40;;;;;;;16.17;8.60;;;;;;;;;;5071499;28;20056;-70
2024/01/28 08:10:07;;;;;;;18.02;8.93;;;;;;;;;;5071703;28;20518;-70
2024/01/28 08:12:33;;;;;;;18.05;8.52;;;;;;;;;;5071329;28;20120;-71
2024/01/28 08:14:59;;;;;;;15.52;9.05;;;;;;;;;;5071445;28;20388;-71
2024/01/28 08:17:26;;;;;;;15.18;8.15;;;;;;;;;;5072850;28;20029;-71
2024/01/28 08:19:52;;;;;;;17.13;8.40;;;;;;;;;;5073525;28;20040;-71
2024/01/28 08:22:18;;;;;;;17.50;8.95;;;;;;;;;;5072752;28;20389;-70
2024/01/28 08:24:45;;;;;;;19.15;8.80;;;;;;;;;;5078788;28;20060;-70
2024/01/28 08:27:11;;;;;;;16.02;8.65;;;;;;;;;;5061548;28;20098;-68
2024/01/28 08:29:38;;;;;;;15.10;9.00;;;;;;;;;;5081607;28;20040;-70
2024/01/28 08:32:05;;;;;;;14.93;8.82;;;;;;;;;;5086612;28;20048;-70
2024/01/28 08:34:31;;;;;;;15.07;8.88;;;;;;;;;;5083821;28;20067;-70
2024/01/28 08:36:57;;;;;;;15.50;8.32;;;;;;;;;;5087692;28;20488;-70
2024/01/28 08:39:23;;;;;;;22.40;9.13;;;;;;;;;;5072615;28;20090;-70
2024/01/28 08:41:49;;;;;;;20.65;8.77;;;;;;;;;;5072741;28;20040;-70
2024/01/28 08:44:18;;;;;;;14.48;8.23;;;;;;;;;;5055440;28;20036;-70
2024/01/28 08:46:46;;;;;;;15.82;8.77;;;;;;;;;;5076752;28;20039;-70
2024/01/28 08:49:12;;;;;;;16.75;7.95;;;;;;;;;;5066287;28;20036;-70
2024/01/28 08:51:38;;;;;;;16.48;8.18;;;;;;;;;;5078499;28;20036;-70
2024/01/28 08:54:05;;;;;;;16.17;8.30;;;;;;;;;;5075077;28;20044;-70
2024/01/28 08:56:31;;;;;;;16.77;8.60;;;;;;;;;;5079179;28;20072;-70
2024/01/28 08:58:57;;;;;;;15.60;7.75;;;;;;;;;;5076251;28;20040;-70
2024/01/28 09:01:23;;;;;;;14.15;8.18;;;;;;;;;;5070178;28;20043;-70
2024/01/28 09:03:49;;;;;;;12.85;7.72;;;;;;;;;;5086620;28;20067;-70
2024/01/28 09:06:15;;;;;;;14.40;8.30;;;;;;;;;;5083247;28;20123;-70
2024/01/28 09:08:41;;;;;;;14.88;8.25;;;;;;;;;;5075867;28;20036;-70
2024/01/28 09:11:09;;;;;;;13.45;7.07;;;;;;;;;;5062829;28;20036;-70
2024/01/28 09:13:35;;;;;;;16.90;8.60;;;;;;;;;;5066370;28;20044;-69
2024/01/28 09:16:01;;;;;;;14.40;7.05;;;;;;;;;;5081253;28;20040;-68
2024/01/28 09:18:27;;;;;;;17.33;7.63;;;;;;;;;;5074645;28;21285;-68
2024/01/28 09:20:53;;;;;;;16.75;7.80;;;;;;;;;;5075542;28;20127;-68
2024/01/28 09:23:19;;;;;;;15.77;6.85;;;;;;;;;;5074202;28;20052;-69
2024/01/28 09:25:45;;;;;;;13.27;6.63;;;;;;;;;;5067811;28;20135;-68
2024/01/28 09:28:11;;;;;;;15.43;7.10;;;;;;;;;;5059025;28;20049;-69
2024/01/28 09:30:41;;;;;;;14.88;6.75;;;;;;;;;;5077295;28;20090;-69
2024/01/28 09:33:10;;;;;;;11.45;6.60;;;3.00;99.90;;;;;;5092814;28;20032;-70
2024/01/28 09:35:39;;;;;;;13.43;7.43;;;;;;;;;;5079664;28;20044;-69
2024/01/28 09:38:06;;;;;;;11.98;6.78;;;;;;;;;;5089133;28;20040;-69
2024/01/28 09:40:33;;;;;;;12.65;6.80;;;;;;;;;;5092370;28;20437;-69
2024/01/28 09:43:02;;;;;;;12.48;6.78;;;;;;;;;;5075258;28;20051;-69
2024/01/28 09:45:28;;;;;;;16.10;7.35;;;;;;;;;;5076902;28;20101;-69
2024/01/28 09:47:55;;;;;;;11.35;6.82;;;;;;;;;;5075624;28;20048;-69
2024/01/28 09:50:21;;;;;;;13.32;7.03;;;;;;;;;;5075192;28;20400;-69
2024/01/28 09:52:47;;;;;;;12.55;6.47;;;;;;;;;;5083304;28;20032;-69
2024/01/28 09:55:13;;;;;;;13.65;7.03;;;;;;;;;;5087291;28;20100;-70
2024/01/28 09:57:39;;;;;;;15.77;6.78;;;;;;;;;;5090071;28;20040;-70
2024/01/28 10:00:09;;;;;;;11.90;6.63;;;;;;;;;;5092321;28;20028;-69
2024/01/28 10:02:36;;;;;;;10.50;6.43;;;;;;;;;;5086864;28;20040;-69
2024/01/28 10:05:04;;;;;;;13.52;6.75;;;;;;;;;;5090763;28;20119;-70
2024/01/28 10:07:40;;;;;;;13.65;6.72;;;;;;;;;;5072159;28;20036;-69
2024/01/28 10:10:06;;;;;;;11.15;6.53;;;;;;;;;;5093006;28;20054;-69
2024/01/28 10:12:33;;;;;;;9.68;6.38;;;;;;;;;;5085317;28;20044;-70
2024/01/28 10:14:59;;;;;;;11.73;6.18;;;;;;;;;;5074947;28;20083;-69
2024/01/28 10:17:25;;;;;;;13.32;6.65;;;;;;;;;;5061484;28;20071;-69
2024/01/28 10:19:51;;;;;;;12.32;5.75;;;;;;;;;;5087360;28;20043;-69
2024/01/28 10:22:18;;;;;;;12.60;6.32;;;;;;;;;;5080749;28;20036;-69
2024/01/28 10:24:45;;;;;;;14.25;5.78;;;;;;;;;;5086699;28;20059;-69
2024/01/28 10:27:11;;;;;;;10.80;5.63;;;;;;;;;;5081811;28;20048;-69
2024/01/28 10:29:39;;;;;;;9.18;5.55;;;;;;;;;;5056604;28;20492;-69
2024/01/28 10:32:06;;;;;;;13.00;6.30;;;;;;;;;;5057749;28;20113;-69
2024/01/28 10:34:32;;;;;;;11.30;5.50;;;;;;;;;;5073269;28;20032;-69
2024/01/28 10:36:59;;;;;;;12.73;5.18;;;;;;;;;;5076136;28;20032;-69
2024/01/28 10:39:26;;;;;;;12.75;5.68;;;;;;;;;;5084939;28;20130;-69
2024/01/28 10:41:56;;;;;;;9.77;5.05;;;;;;;;;;5074200;28;20036;-69
2024/01/28 10:44:22;;;;;;;8.90;5.10;;;;;;;;;;5080762;28;20036;-69
2024/01/28 10:46:53;;;;;;;11.13;5.75;;;;;;;;;;5078843;28;20044;-69
2024/01/28 10:49:25;;;;;;;12.65;5.70;;;;;;;;;;5063034;28;20028;-68
2024/01/28 10:51:53;;;;;;;11.23;5.85;;;;;;;;;;5073705;28;20043;-69
2024/01/28 10:54:19;;;;;;;16.73;6.57;;;;;;;;;;5078886;28;20036;-68
2024/01/28 10:56:46;;;;;;;12.25;5.78;;;;;;;;;;5077998;28;20050;-68
2024/01/28 10:59:13;;;;;;;10.30;5.45;;;;;;;;;;5075821;28;20480;-68
2024/01/28 11:01:39;;;;;;;12.88;5.68;;;;;;;;;;5056419;28;20048;-68
2024/01/28 11:04:05;;;;;;;13.20;5.78;;;;;;;;;;5079614;28;20405;-68
2024/01/28 11:06:31;;;;;;;10.15;5.63;;;;;;;;;;5078241;28;20105;-69
2024/01/28 11:08:58;;;;;;;12.07;5.38;;;;;;;;;;5080854;28;20036;-69
2024/01/28 11:11:24;;;;;;;15.60;6.35;;;;;;;;;;5055852;28;20085;-69
2024/01/28 11:13:51;;;;;;;11.57;5.63;;;;;;;;;;5072167;28;20040;-68
2024/01/28 11:16:19;;;;;;;9.40;5.60;;;;;;;;;;5072584;28;20028;-68
2024/01/28 11:18:58;;;;;;;13.13;5.82;;;;;;;;;;5082790;28;20050;-68
2024/01/28 11:21:26;;;;;;;10.73;5.30;;;;;;;;;;5071640;28;20032;-68
2024/01/28 11:23:54;;;;;;;8.70;5.07;;;5.60;99.90;;;;;;5070083;28;20067;-69
2024/01/28 11:26:20;;;;;;;10.43;5.60;;;;;;;;;;5071238;28;20047;-68
2024/01/28 11:28:47;;;;;;;11.25;5.60;;;;;;;;;;5054300;28;20286;-68
2024/01/28 11:31:40;;;;;;;10.02;5.65;;;;;;;;;;5071723;28;20044;-69
2024/01/28 11:34:12;;;;;;;14.13;5.22;;;6.00;99.90;;;;;;5068538;28;20052;-69
2024/01/28 11:36:41;;;;;;;11.50;4.80;;;;;;;;;;5071819;28;20531;-69
2024/01/28 11:39:11;;;;;;;11.43;5.00;;;;;;;;;;5071899;28;20044;-68
2024/01/28 11:41:38;;;;;;;8.70;4.88;;;;;;;;;;5072073;28;20523;-69
2024/01/28 11:44:05;;;;;;;11.10;4.95;;;;;;;;;;5072150;28;20427;-69
2024/01/28 11:46:31;;;;;;;9.85;4.57;;;;;;;;;;5072007;28;20067;-69
2024/01/28 11:48:57;;;;;;;10.48;4.78;;;;;;;;;;5055560;28;20123;-69
2024/01/28 11:51:23;;;;;;;8.70;4.55;;;;;;;;;;5071596;28;20445;-69
2024/01/28 11:53:49;;;;;;;8.63;4.68;;;;;;;;;;5054781;28;20052;-69
2024/01/28 11:56:16;;;;;;;12.57;5.20;;;;;;;;;;5071604;28;20033;-68
2024/01/28 11:58:42;;;;;;;9.00;4.75;;;;;;;;;;5071711;28;20048;-68
2024/01/28 12:01:08;;;;;;;8.82;4.85;;;;;;;;;;5071878;28;20032;-69
2024/01/28 12:03:34;;;;;;;7.75;4.32;;;;;;;;;;5071593;28;20048;-69
2024/01/28 12:06:00;;;;;;;11.80;4.90;;;;;;;;;;5071563;28;20048;-69
2024/01/28 12:08:27;;;;;;;7.22;4.20;;;;;;;;;;5071846;28;20125;-69
2024/01/28 12:11:02;;;;;;;9.23;4.60;;;7.20;99.90;;;;;;5070838;28;20048;-69
2024/01/28 12:13:28;;;;;;;7.85;4.43;;;;;;;;;;5071468;28;20493;-69
2024/01/28 12:15:59;;;;;;;10.93;4.40;;;;;;;;;;5088232;28;20124;-69
2024/01/28 12:18:32;;;;;;;10.52;4.22;;;;;;;;;;5071427;28;20071;-69
2024/01/28 12:20:58;;;;;;;7.80;4.30;;;;;;;;;;5057424;28;20044;-69
2024/01/28 12:23:24;;;;;;;7.78;3.88;;;;;;;;;;5077823;28;20062;-69
2024/01/28 12:25:50;;;;;;;8.07;4.03;;;;;;;;;;5094967;28;20052;-69
2024/01/28 12:28:16;;;;;;;7.38;4.03;;;;;;;;;;5079323;28;20041;-69
2024/01/28 12:30:42;;;;;;;9.32;4.50;;;;;;;;;;5095091;28;20041;-69
2024/01/28 12:33:08;;;;;;;8.98;4.53;;;;;;;;;;5079164;28;20119;-69
2024/01/28 12:35:34;;;;;;;7.47;4.20;;;;;;;;;;5095076;28;20040;-69
2024/01/28 12:38:00;;;;;;;7.03;3.95;;;;;;;;;;5094689;28;20040;-69
2024/01/28 12:40:27;;;;;;;10.00;4.22;;;;;;;;;;5094931;28;20481;-69
2024/01/28 12:42:53;;;;;;;8.02;4.00;;;;;;;;;;5079246;28;20455;-69
2024/01/28 12:45:21;;;;;;;10.68;5.40;;;;;;;;;;5094736;28;20044;-69
2024/01/28 12:47:47;;;;;;;10.63;3.85;;;;;;;;;;5078094;28;20063;-69
2024/01/28 12:50:13;;;;;;;14.00;4.63;;;;;;;;;;5094715;28;20497;-69
2024/01/28 12:52:39;;;;;;;5.70;3.60;;;;;;;;;;5094869;28;20052;-69
2024/01/28 12:55:06;;;;;;;5.53;4.00;;;7.30;99.90;;;;;;5095096;28;20149;-69
2024/01/28 12:57:32;;;;;;;7.20;3.70;;;;;;;;;;5077689;28;20119;-69
2024/01/28 12:59:58;;;;;;;11.00;3.97;;;;;;;;;;5094492;28;20434;-69
2024/01/28 13:02:25;;;;;;;9.90;4.82;;;;;;;;;;5077929;28;20124;-69
2024/01/28 13:04:51;;;;;;;8.95;4.07;;;;;;;;;;5094974;28;20365;-69
2024/01/28 13:07:17;;;;;;;8.30;3.95;;;;;;;;;;5094841;28;20123;-68
2024/01/28 13:09:44;;;;;;;11.13;4.43;;;;;;;;;;5077815;28;20064;-68
2024/01/28 13:12:10;;;;;;;11.07;3.92;;;;;;;;;;5077862;28;20070;-69
2024/01/28 13:14:36;;;;;;;5.97;3.63;;;;;;;;;;5094682;28;20040;-69
2024/01/28 13:17:02;;;;;;;8.20;5.13;;;;;;;;;;5094387;28;20044;-69
2024/01/28 13:19:28;;;;;;;6.72;3.60;;;;;;;;;;5077619;28;20068;-69
2024/01/28 13:21:54;;;;;;;6.57;3.50;;;;;;;;;;5094390;28;20055;-69
2024/01/28 13:24:21;;;;;;;5.28;3.53;;;;;;;;;;5094237;28;20516;-69
2024/01/28 13:26:47;;;;;;;8.02;3.33;;;;;;;;;;5077423;28;20129;-69
2024/01/28 13:29:13;;;;;;;7.15;3.33;;;;;;;;;;5077647;28;20551;-69
2024/01/28 13:31:39;;;;;;;8.25;3.88;;;;;;;;;;5078311;28;20475;-69
2024/01/28 13:34:06;;;;;;;7.03;3.33;;;;;;;;;;5057705;28;20037;-69
2024/01/28 13:36:32;;;;;;;5.97;3.47;;;;;;;;;;5091046;28;20044;-69
2024/01/28 13:38:58;;;;;;;5.53;3.50;;;;;;;;;;5090943;28;20048;-69
2024/01/28 13:41:24;;;;;;;6.28;3.60;;;;;;;;;;5074012;28;20495;-69
2024/01/28 13:43:50;;;;;;;7.93;3.58;;;;;;;;;;5091214;28;20349;-69
2024/01/28 13:46:16;;;;;;;5.38;3.60;;;;;;;;;;5091150;28;20453;-69
2024/01/28 13:48:42;;;;;;;6.45;3.22;;;;;;;;;;5091131;28;20044;-69
2024/01/28 13:51:08;;;;;;;6.32;3.85;;;;;;;;;;5073960;28;20044;-69
2024/01/28 13:53:35;;;;;;;11.10;3.35;;;;;;;;;;5090836;28;20404;-68
2024/01/28 13:56:04;;;;;;;7.70;3.42;;;;;;;;;;5057515;28;20051;-69
2024/01/28 13:58:30;;;;;;;6.00;3.25;;;;;;;;;;5073805;28;20090;-68
2024/01/28 14:00:56;;;;;;;7.25;3.33;;;;;;;;;;5074069;28;20040;-69
2024/01/28 14:03:22;;;;;;;5.95;3.30;;;;;;;;;;5075124;28;20083;-69
2024/01/28 14:05:49;;;;;;;5.72;3.00;;;;;;;;;;5090594;28;20040;-69
2024/01/28 14:08:15;;;;;;;9.73;3.47;;;;;;;;;;5073573;28;20511;-69
2024/01/28 14:10:41;;;;;;;8.70;3.42;;;;;;;;;;5090367;28;20079;-69
2024/01/28 14:13:07;;;;;;;6.20;2.80;;;;;;;;;;5073362;28;20041;-69
2024/01/28 14:15:37;;;;;;;7.20;3.25;;;;;;;;;;5056857;28;20071;-69
2024/01/28 14:18:04;;;;;;;7.45;3.10;;;;;;;;;;5073508;28;20051;-69
2024/01/28 14:20:30;;;;;;;7.13;3.38;;;;;;;;;;5090269;28;20048;-68
2024/01/28 14:22:56;;;;;;;6.63;3.47;;;;;;;;;;5073261;28;20091;-69
2024/01/28 14:25:22;;;;;;;6.85;2.92;;;;;;;;;;5089982;28;20056;-69